Hub


Voltar

 INFORMAÇÕES METEOROLÓGICAS

METAR FOR LTAC


ADDS - METARS form results

(2343 UTC 19 August 2019)
Data provider http://aviationweather.gov/metar/data/
 
METAR text: LTAC 192320Z 06010KT 020V080 9999 -SHRA BKN030 BKN100 16/12 Q1019 NOSIG RMK RWY21L 06008KT RWY03L 06009KT RWY21R 08008KT
Conditions at: LTAC (ANKARA/ESENBOGA , TR) observed 2320 UTC 19 August 2019
Temperature: 16.0°C (61°F)
Dewpoint: 12.0°C (54°F) [RH = 77%]
Pressure (altimeter): 30.09 inches Hg (1019.0 mb)
Winds: from the ENE (60 degrees) at 12 MPH (10 knots; 5.1 m/s)
Visibility: 6 or more miles (10+ km)
Ceiling: 3000 feet AGL
Clouds: broken clouds at 3000 feet AGL
broken clouds at 10000 feet AGL
Weather: -SHRA  (light rain showers)

METAR text: LTAC 192305Z 08011KT 9999 -SHRA BKN030 BKN100 17/11 Q1019 NOSIG RMK RWY21L 09010KT RWY03L 08009KT RWY21R 10010KT
Conditions at: LTAC (ANKARA/ESENBOGA , TR) observed 2305 UTC 19 August 2019
Temperature: 17.0°C (63°F)
Dewpoint: 11.0°C (52°F) [RH = 68%]
Pressure (altimeter): 30.09 inches Hg (1019.0 mb)
Winds: from the E (80 degrees) at 13 MPH (11 knots; 5.7 m/s)
Visibility: 6 or more miles (10+ km)
Ceiling: 3000 feet AGL
Clouds: broken clouds at 3000 feet AGL
broken clouds at 10000 feet AGL
Weather: -SHRA  (light rain showers)

METAR text: LTAC 192250Z 08009KT 9999 SCT030 BKN100 17/11 Q1019 NOSIG RMK RWY21L 07008KT RWY03L 09008KT RWY21R 08008KT
Conditions at: LTAC (ANKARA/ESENBOGA , TR) observed 2250 UTC 19 August 2019
Temperature: 17.0°C (63°F)
Dewpoint: 11.0°C (52°F) [RH = 68%]
Pressure (altimeter): 30.09 inches Hg (1019.0 mb)
Winds: from the E (80 degrees) at 10 MPH (9 knots; 4.6 m/s)
Visibility: 6 or more miles (10+ km)
Ceiling: 10000 feet AGL
Clouds: scattered clouds at 3000 feet AGL
broken clouds at 10000 feet AGL
Weather: no significant weather observed at this time

Forecast for: LTAC (ANKARA/ESENBOGA , TR)
Text: TAF LTAC 192240Z 2000/2024 VRB02KT 9999 SCT040
Forecast period: 0000 to 0600 UTC 20 August 2019
Forecast type: FROM: standard forecast or significant change
Winds: variable direction winds at 2 MPH (2 knots; 1.0 m/s)
Visibility: 6 or more miles 10+ km)
Ceiling: at least 12,000 feet AGL
Clouds: scattered clouds at 4000 feet AGL
Weather: no significant weather forecast for this period
Text: TEMPO 2000/2002 -SHRA BKN030 BKN080
Forecast period: 0000 to 0200 UTC 20 August 2019
Forecast type: TEMPORARY: The following changes expected for less than half the time period
Visibility: missing
Ceiling: 3000 feet AGL
Clouds: broken clouds at 3000 feet AGL
broken clouds at 8000 feet AGL
Weather: -SHRA  (light rain showers)
Text: BECMG 2006/2008 04012KT
Forecast period: 0600 UTC 20 August 2019 to 0000 UTC 21 August 2019
Forecast type: BECOMING: Conditions expected to become as follows by 0800 UTC 20 August 2019
Winds: from the NE (40 degrees) at 14 MPH (12 knots; 6.2 m/s)
Visibility: 6 or more miles 10+ km)
Ceiling: at least 12,000 feet AGL
Clouds: scattered clouds at 4000 feet AGL
Weather: no significant weather forecast for this period
Text: TEMPO 2011/2015 04015G30KT -TSRA FEW025CB BKN030
Forecast period: 1100 to 1500 UTC 20 August 2019
Forecast type: TEMPORARY: The following changes expected for less than half the time period
Winds: from the NE (40 degrees) at 17 MPH (15 knots; 7.7 m/s)
gusting to 34 MPH (30 knots; 15.4 m/s)
Visibility: missing
Ceiling: 3000 feet AGL
Clouds: few clouds at 2500 feet AGL
broken clouds at 3000 feet AGL
Weather: -TSRA  (light rain associated with thunderstorm(s))


 MAPA DO AEROPORTO


 INFORMAÇÕES DA PISTA

Pista 03L Tamanho da pista 12303 ft Largura da pista 148 ft
Elevação da pista 3100 ft Ranhura da pista 1148 ft Proa da pista 36
Pista 21R Tamanho da pista 12303 ft Largura da pista 148 ft
Elevação da pista 3123 ft Ranhura da pista 0 ft Proa da pista 216
Pista 03R Tamanho da pista 12303 ft Largura da pista 197 ft
Elevação da pista 3097 ft Ranhura da pista 0 ft Proa da pista 35
Pista 21L Tamanho da pista 12303 ft Largura da pista 197 ft
Elevação da pista 3125 ft Ranhura da pista 0 ft Proa da pista 215

 FREQUÊNCIAS DO AEROPORTO

Tipo APP Nome APP Frequência 119.1 MHZ
Tipo ATIS Nome ATIS Frequência 123.6 MHZ
Tipo GND Nome GND Frequência 121.9 MHZ
Tipo TWR Nome TWR Frequência 118.1 MHZ

 AUXÍLIOS DE NAVEGAÇÃO PRÓXIMOS AO AEROPORTO

Tipo VOR-DME Nome Cubuk Frequência 114300 KHZ